Electra — WQ5910 — position and weather

sailwx.info

Track history (hours):
 
Tides and Currents Weather Stations Pressure Air Temp Water Temp Dewpoint Dewpoint Depression Visibility Wind Speed Wind Dir Waves Ship Positions

Electra

Owner: HELGREN, RICHARD F, OCEANSIDE, CA. More information available from US FCC via Universal Licensing System and Coast Guard Vessel Documentation Center.

Last reported at 2018-Jul-05 08:49 UTC. Time now 2018-Jul-18 05:04 UTC.
Position N 33°12' W 117°23'.
Warning: this ship's position is 12 days out of date.

Length 24 m.

Type: Wing in ground effect craft. MMSI: 367394780.

Date/timePositionNaut miles runAvg speedWind from/ knotsBaromVisibWave heightAir tempDewpointWater temp
2018-Jul-05 08:49N 33°12' W 117°23'1 2.3
2018-Jul-05 08:30N 33°12' W 117°24'1 1.8
2018-Jul-05 08:00N 33°13' W 117°25'0 0.0
2018-Jul-05 07:30N 33°13' W 117°25'0 0.0
2018-Jul-05 07:00N 33°13' W 117°25'0 0.0
2018-Jul-05 06:30N 33°13' W 117°25'0 0.0
2018-Jul-05 06:00N 33°13' W 117°25'0 0.4
2018-Jul-05 05:30N 33°12' W 117°25'1 2.7
2018-Jul-05 04:58N 33°12' W 117°23'1 2.5
2018-Jul-05 04:30N 33°12' W 117°25'0 0.8
2018-Jul-05 04:01N 33°13' W 117°25'0 0.6
2018-Jul-05 03:30N 33°13' W 117°25'  
2018-Jul-02 21:58N 33°12' W 117°25'1 1.5
2018-Jul-02 21:30N 33°13' W 117°26'0 0.2
2018-Jul-02 21:00N 33°13' W 117°26'0 0.5
2018-Jul-02 20:30N 33°13' W 117°26'0 0.5
2018-Jul-02 20:00N 33°12' W 117°26'0 0.1
2018-Jul-02 19:30N 33°12' W 117°26'0 0.6
2018-Jul-02 19:00N 33°12' W 117°26'0 0.0
2018-Jul-02 18:30N 33°12' W 117°26'0 0.0
2018-Jul-02 18:00N 33°12' W 117°26'0 0.0
2018-Jul-02 17:30N 33°12' W 117°26'2 3.7
2018-Jul-02 16:58N 33°12' W 117°23'0 0.0
2018-Jul-01 16:28N 33°12' W 117°23'0 0.0
2018-Jul-01 16:00N 33°12' W 117°23'0 0.4
2018-Jul-01 15:30N 33°12' W 117°24'0 0.0
2018-Jul-01 15:00N 33°12' W 117°24'0 0.0
2018-Jul-01 14:30N 33°12' W 117°24'0 0.0
2018-Jul-01 14:00N 33°12' W 117°24'0 0.0
2018-Jul-01 13:30N 33°12' W 117°24'0 0.0
2018-Jul-01 13:00N 33°12' W 117°24'0 0.0
2018-Jul-01 12:30N 33°12' W 117°24'0 0.0
2018-Jul-01 12:00N 33°12' W 117°24'0 0.0
2018-Jul-01 11:30N 33°12' W 117°24'0 0.0
2018-Jul-01 11:00N 33°12' W 117°24'0 0.0
2018-Jul-01 10:30N 33°12' W 117°24'0 0.0
2018-Jul-01 10:00N 33°12' W 117°24'0 0.0
2018-Jul-01 09:30N 33°12' W 117°24'0 0.0
2018-Jul-01 09:01N 33°12' W 117°24'0 0.0
2018-Jul-01 08:30N 33°12' W 117°24'0 0.0
2018-Jul-01 08:00N 33°12' W 117°24'0 0.0
2018-Jul-01 07:30N 33°12' W 117°24'0 0.0
2018-Jul-01 07:00N 33°12' W 117°24'0 0.0
2018-Jul-01 06:30N 33°12' W 117°24'0 0.0
2018-Jul-01 06:00N 33°12' W 117°24'0 0.0
2018-Jul-01 05:30N 33°12' W 117°24'0 0.0
2018-Jul-01 05:00N 33°12' W 117°24'0 0.0
2018-Jul-01 04:30N 33°12' W 117°24'0 0.0
2018-Jul-01 04:00N 33°12' W 117°24'0 0.0
2018-Jul-01 03:30N 33°12' W 117°24'0 0.0
2018-Jul-01 03:00N 33°12' W 117°24'0 0.0
2018-Jul-01 02:30N 33°12' W 117°24'0 0.0
2018-Jul-01 02:00N 33°12' W 117°24'0 0.0
2018-Jul-01 01:30N 33°12' W 117°24'0 0.0
2018-Jul-01 01:00N 33°12' W 117°24'0 0.0
2018-Jul-01 00:30N 33°12' W 117°24'0 0.2
2018-Jun-30 23:59N 33°12' W 117°24'2 3.3
2018-Jun-30 23:30N 33°11' W 117°25'2 3.1
2018-Jun-30 23:00N 33°12' W 117°24'0 0.3
2018-Jun-30 22:30N 33°12' W 117°23'1 1.6
2018-Jun-30 22:00N 33°12' W 117°24'5 9.8
2018-Jun-30 21:30N 33°07' W 117°21'3 5.5
2018-Jun-30 21:00N 33°05' W 117°19'0 0.0
2018-Jun-30 20:30N 33°05' W 117°19'0 0.0
2018-Jun-30 20:00N 33°05' W 117°19'1 1.3
2018-Jun-30 19:30N 33°04' W 117°19'0 0.0
2018-Jun-30 19:00N 33°04' W 117°19'0 0.6
2018-Jun-30 18:30N 33°05' W 117°19'3 6.0
2018-Jun-30 18:00N 33°07' W 117°21'4 7.7
2018-Jun-30 17:30N 33°11' W 117°23'2 3.3
2018-Jun-30 17:00N 33°12' W 117°23'0 0.0
2018-Jun-30 16:27N 33°12' W 117°23'1 2.2
2018-Jun-30 16:00N 33°11' W 117°24'1 2.0
2018-Jun-30 15:30N 33°12' W 117°23'3 0.1
2018-Jun-28 21:47N 33°10' W 117°22'2 6.0
2018-Jun-28 21:30N 33°09' W 117°21'0 0.1
2018-Jun-28 21:00N 33°09' W 117°21'1 2.7
2018-Jun-28 20:30N 33°07' W 117°20'0 0.1
2018-Jun-28 20:00N 33°07' W 117°20'0 0.0
2018-Jun-28 19:30N 33°07' W 117°20'1 1.5
2018-Jun-28 19:00N 33°07' W 117°20'0 0.2
2018-Jun-28 18:30N 33°07' W 117°20'0 0.0
2018-Jun-28 18:00N 33°07' W 117°20'3 5.6
2018-Jun-28 17:30N 33°09' W 117°22'3 7.1
2018-Jun-28 17:00N 33°12' W 117°23'0 0.1
2018-Jun-28 16:30N 33°12' W 117°23'0 0.4
2018-Jun-28 16:00N 33°12' W 117°24'0 0.4
2018-Jun-28 15:28N 33°12' W 117°23'0 0.1
2018-Jun-28 15:00N 33°12' W 117°23'  
Track history (hours):
 
Tides and Currents Weather Stations Pressure Air Temp Water Temp Dewpoint Dewpoint Depression Visibility Wind Speed Wind Dir Waves Ship Positions

Electra

Owner: HELGREN, RICHARD F, OCEANSIDE, CA. More information available from US FCC via Universal Licensing System and Coast Guard Vessel Documentation Center.

Last reported at 2018-Jul-05 08:49 UTC. Time now 2018-Jul-18 05:04 UTC.
Position N 33°12' W 117°23'.
Warning: this ship's position is 12 days out of date.

Length 24 m.

Type: Wing in ground effect craft. MMSI: 367394780.

Date/timePositionNaut miles runAvg speedWind from/ knotsBaromVisibWave heightAir tempDewpointWater temp
2018-Jul-05 08:49N 33°12' W 117°23'1 2.3
2018-Jul-05 08:30N 33°12' W 117°24'1 1.8
2018-Jul-05 08:00N 33°13' W 117°25'0 0.0
2018-Jul-05 07:30N 33°13' W 117°25'0 0.0
2018-Jul-05 07:00N 33°13' W 117°25'0 0.0
2018-Jul-05 06:30N 33°13' W 117°25'0 0.0
2018-Jul-05 06:00N 33°13' W 117°25'0 0.4
2018-Jul-05 05:30N 33°12' W 117°25'1 2.7
2018-Jul-05 04:58N 33°12' W 117°23'1 2.5
2018-Jul-05 04:30N 33°12' W 117°25'0 0.8
2018-Jul-05 04:01N 33°13' W 117°25'0 0.6
2018-Jul-05 03:30N 33°13' W 117°25'  
2018-Jul-02 21:58N 33°12' W 117°25'1 1.5
2018-Jul-02 21:30N 33°13' W 117°26'0 0.2
2018-Jul-02 21:00N 33°13' W 117°26'0 0.5
2018-Jul-02 20:30N 33°13' W 117°26'0 0.5
2018-Jul-02 20:00N 33°12' W 117°26'0 0.1
2018-Jul-02 19:30N 33°12' W 117°26'0 0.6
2018-Jul-02 19:00N 33°12' W 117°26'0 0.0
2018-Jul-02 18:30N 33°12' W 117°26'0 0.0
2018-Jul-02 18:00N 33°12' W 117°26'0 0.0
2018-Jul-02 17:30N 33°12' W 117°26'2 3.7
2018-Jul-02 16:58N 33°12' W 117°23'0 0.0
2018-Jul-01 16:28N 33°12' W 117°23'0 0.0
2018-Jul-01 16:00N 33°12' W 117°23'0 0.4
2018-Jul-01 15:30N 33°12' W 117°24'0 0.0
2018-Jul-01 15:00N 33°12' W 117°24'0 0.0
2018-Jul-01 14:30N 33°12' W 117°24'0 0.0
2018-Jul-01 14:00N 33°12' W 117°24'0 0.0
2018-Jul-01 13:30N 33°12' W 117°24'0 0.0
2018-Jul-01 13:00N 33°12' W 117°24'0 0.0
2018-Jul-01 12:30N 33°12' W 117°24'0 0.0
2018-Jul-01 12:00N 33°12' W 117°24'0 0.0
2018-Jul-01 11:30N 33°12' W 117°24'0 0.0
2018-Jul-01 11:00N 33°12' W 117°24'0 0.0
2018-Jul-01 10:30N 33°12' W 117°24'0 0.0
2018-Jul-01 10:00N 33°12' W 117°24'0 0.0
2018-Jul-01 09:30N 33°12' W 117°24'0 0.0
2018-Jul-01 09:01N 33°12' W 117°24'0 0.0
2018-Jul-01 08:30N 33°12' W 117°24'0 0.0
2018-Jul-01 08:00N 33°12' W 117°24'0 0.0
2018-Jul-01 07:30N 33°12' W 117°24'0 0.0
2018-Jul-01 07:00N 33°12' W 117°24'0 0.0
2018-Jul-01 06:30N 33°12' W 117°24'0 0.0
2018-Jul-01 06:00N 33°12' W 117°24'0 0.0
2018-Jul-01 05:30N 33°12' W 117°24'0 0.0
2018-Jul-01 05:00N 33°12' W 117°24'0 0.0
2018-Jul-01 04:30N 33°12' W 117°24'0 0.0
2018-Jul-01 04:00N 33°12' W 117°24'0 0.0
2018-Jul-01 03:30N 33°12' W 117°24'0 0.0
2018-Jul-01 03:00N 33°12' W 117°24'0 0.0
2018-Jul-01 02:30N 33°12' W 117°24'0 0.0
2018-Jul-01 02:00N 33°12' W 117°24'0 0.0
2018-Jul-01 01:30N 33°12' W 117°24'0 0.0
2018-Jul-01 01:00N 33°12' W 117°24'0 0.0
2018-Jul-01 00:30N 33°12' W 117°24'0 0.2
2018-Jun-30 23:59N 33°12' W 117°24'2 3.3
2018-Jun-30 23:30N 33°11' W 117°25'2 3.1
2018-Jun-30 23:00N 33°12' W 117°24'0 0.3
2018-Jun-30 22:30N 33°12' W 117°23'1 1.6
2018-Jun-30 22:00N 33°12' W 117°24'5 9.8
2018-Jun-30 21:30N 33°07' W 117°21'3 5.5
2018-Jun-30 21:00N 33°05' W 117°19'0 0.0
2018-Jun-30 20:30N 33°05' W 117°19'0 0.0
2018-Jun-30 20:00N 33°05' W 117°19'1 1.3
2018-Jun-30 19:30N 33°04' W 117°19'0 0.0
2018-Jun-30 19:00N 33°04' W 117°19'0 0.6
2018-Jun-30 18:30N 33°05' W 117°19'3 6.0
2018-Jun-30 18:00N 33°07' W 117°21'4 7.7
2018-Jun-30 17:30N 33°11' W 117°23'2 3.3
2018-Jun-30 17:00N 33°12' W 117°23'0 0.0
2018-Jun-30 16:27N 33°12' W 117°23'1 2.2
2018-Jun-30 16:00N 33°11' W 117°24'1 2.0
2018-Jun-30 15:30N 33°12' W 117°23'3 0.1
2018-Jun-28 21:47N 33°10' W 117°22'2 6.0
2018-Jun-28 21:30N 33°09' W 117°21'0 0.1
2018-Jun-28 21:00N 33°09' W 117°21'1 2.7
2018-Jun-28 20:30N 33°07' W 117°20'0 0.1
2018-Jun-28 20:00N 33°07' W 117°20'0 0.0
2018-Jun-28 19:30N 33°07' W 117°20'1 1.5
2018-Jun-28 19:00N 33°07' W 117°20'0 0.2
2018-Jun-28 18:30N 33°07' W 117°20'0 0.0
2018-Jun-28 18:00N 33°07' W 117°20'3 5.6
2018-Jun-28 17:30N 33°09' W 117°22'3 7.1
2018-Jun-28 17:00N 33°12' W 117°23'0 0.1
2018-Jun-28 16:30N 33°12' W 117°23'0 0.4
2018-Jun-28 16:00N 33°12' W 117°24'0 0.4
2018-Jun-28 15:28N 33°12' W 117°23'0 0.1
2018-Jun-28 15:00N 33°12' W 117°23'  

Dump ship's entire track history